sensor_id;sensor_type;location;lat;lon;timestamp;temperature;humidity
43151;DHT22;28755;51.478;5.702;2023-07-08T00:00:19;20.50;99.90
43151;DHT22;28755;51.478;5.702;2023-07-08T00:02:44;20.50;99.90
43151;DHT22;28755;51.478;5.702;2023-07-08T00:05:16;20.40;99.90
43151;DHT22;28755;51.478;5.702;2023-07-08T00:07:43;20.40;99.90
43151;DHT22;28755;51.478;5.702;2023-07-08T00:10:14;20.40;99.90
43151;DHT22;28755;51.478;5.702;2023-07-08T00:12:41;20.40;99.90
43151;DHT22;28755;51.478;5.702;2023-07-08T00:15:07;20.40;99.90
43151;DHT22;28755;51.478;5.702;2023-07-08T00:17:33;20.30;99.90
43151;DHT22;28755;51.478;5.702;2023-07-08T00:19:58;20.20;99.90
43151;DHT22;28755;51.478;5.702;2023-07-08T00:22:24;20.20;99.90
43151;DHT22;28755;51.478;5.702;2023-07-08T00:24:50;20.10;99.90
43151;DHT22;28755;51.478;5.702;2023-07-08T00:27:16;20.10;99.90
43151;DHT22;28755;51.478;5.702;2023-07-08T00:29:42;20.00;99.90
43151;DHT22;28755;51.478;5.702;2023-07-08T00:32:14;20.00;99.90
43151;DHT22;28755;51.478;5.702;2023-07-08T00:34:41;19.90;99.90
43151;DHT22;28755;51.478;5.702;2023-07-08T00:37:11;19.90;99.90
43151;DHT22;28755;51.478;5.702;2023-07-08T00:39:37;19.90;99.90
43151;DHT22;28755;51.478;5.702;2023-07-08T00:42:17;19.90;99.90
43151;DHT22;28755;51.478;5.702;2023-07-08T00:44:43;19.90;99.90
43151;DHT22;28755;51.478;5.702;2023-07-08T00:47:11;19.90;99.90
43151;DHT22;28755;51.478;5.702;2023-07-08T00:49:57;19.80;99.90
43151;DHT22;28755;51.478;5.702;2023-07-08T00:52:28;19.80;99.90
43151;DHT22;28755;51.478;5.702;2023-07-08T00:54:56;19.80;99.90
43151;DHT22;28755;51.478;5.702;2023-07-08T00:57:26;19.70;99.90
43151;DHT22;28755;51.478;5.702;2023-07-08T01:00:05;19.70;99.90
43151;DHT22;28755;51.478;5.702;2023-07-08T01:02:44;19.70;99.90
43151;DHT22;28755;51.478;5.702;2023-07-08T01:05:19;19.70;99.90
43151;DHT22;28755;51.478;5.702;2023-07-08T01:07:51;19.70;99.90
43151;DHT22;28755;51.478;5.702;2023-07-08T01:10:24;19.70;99.90
43151;DHT22;28755;51.478;5.702;2023-07-08T01:12:54;19.70;99.90
43151;DHT22;28755;51.478;5.702;2023-07-08T01:15:23;19.70;99.90
43151;DHT22;28755;51.478;5.702;2023-07-08T01:17:49;19.80;99.90
43151;DHT22;28755;51.478;5.702;2023-07-08T01:20:19;19.70;99.90
43151;DHT22;28755;51.478;5.702;2023-07-08T01:22:45;19.70;99.90
43151;DHT22;28755;51.478;5.702;2023-07-08T01:25:11;19.70;99.90
43151;DHT22;28755;51.478;5.702;2023-07-08T01:27:42;19.70;99.90
43151;DHT22;28755;51.478;5.702;2023-07-08T01:30:10;19.70;99.90
43151;DHT22;28755;51.478;5.702;2023-07-08T01:32:43;19.70;99.90
43151;DHT22;28755;51.478;5.702;2023-07-08T01:35:11;19.70;99.90
43151;DHT22;28755;51.478;5.702;2023-07-08T01:37:40;19.70;99.90
43151;DHT22;28755;51.478;5.702;2023-07-08T01:40:33;19.80;99.90
43151;DHT22;28755;51.478;5.702;2023-07-08T01:43:01;19.80;99.90
43151;DHT22;28755;51.478;5.702;2023-07-08T01:45:31;19.80;99.90
43151;DHT22;28755;51.478;5.702;2023-07-08T01:48:03;19.70;99.90
43151;DHT22;28755;51.478;5.702;2023-07-08T01:50:31;19.80;99.90
43151;DHT22;28755;51.478;5.702;2023-07-08T01:52:59;19.80;99.90
43151;DHT22;28755;51.478;5.702;2023-07-08T01:55:26;19.80;99.90
43151;DHT22;28755;51.478;5.702;2023-07-08T01:57:54;19.80;99.90
43151;DHT22;28755;51.478;5.702;2023-07-08T02:00:21;19.80;99.90
43151;DHT22;28755;51.478;5.702;2023-07-08T02:02:47;19.70;99.90
43151;DHT22;28755;51.478;5.702;2023-07-08T02:05:13;19.80;99.90
43151;DHT22;28755;51.478;5.702;2023-07-08T02:07:39;19.80;99.90
43151;DHT22;28755;51.478;5.702;2023-07-08T02:10:05;19.70;99.90
43151;DHT22;28755;51.478;5.702;2023-07-08T02:12:31;19.70;99.90
43151;DHT22;28755;51.478;5.702;2023-07-08T02:14:59;19.80;99.90
43151;DHT22;28755;51.478;5.702;2023-07-08T02:17:25;19.80;99.90
43151;DHT22;28755;51.478;5.702;2023-07-08T02:19:50;19.70;99.90
43151;DHT22;28755;51.478;5.702;2023-07-08T02:22:16;19.70;99.90
43151;DHT22;28755;51.478;5.702;2023-07-08T02:24:41;19.70;99.90
43151;DHT22;28755;51.478;5.702;2023-07-08T02:27:07;19.60;99.90
43151;DHT22;28755;51.478;5.702;2023-07-08T02:29:32;19.60;99.90
43151;DHT22;28755;51.478;5.702;2023-07-08T02:31:58;19.50;99.90
43151;DHT22;28755;51.478;5.702;2023-07-08T02:34:24;19.50;99.90
43151;DHT22;28755;51.478;5.702;2023-07-08T02:36:49;19.40;99.90
43151;DHT22;28755;51.478;5.702;2023-07-08T02:39:15;19.30;99.90
43151;DHT22;28755;51.478;5.702;2023-07-08T02:41:40;19.30;99.90
43151;DHT22;28755;51.478;5.702;2023-07-08T02:44:06;19.30;99.90
43151;DHT22;28755;51.478;5.702;2023-07-08T02:46:31;19.30;99.90
43151;DHT22;28755;51.478;5.702;2023-07-08T02:48:57;19.30;99.90
43151;DHT22;28755;51.478;5.702;2023-07-08T02:51:22;19.20;99.90
43151;DHT22;28755;51.478;5.702;2023-07-08T02:53:49;19.20;99.90
43151;DHT22;28755;51.478;5.702;2023-07-08T02:56:15;19.10;99.90
43151;DHT22;28755;51.478;5.702;2023-07-08T02:58:40;19.20;99.90
43151;DHT22;28755;51.478;5.702;2023-07-08T03:01:06;19.10;99.90
43151;DHT22;28755;51.478;5.702;2023-07-08T03:03:32;19.10;99.90
43151;DHT22;28755;51.478;5.702;2023-07-08T03:06:01;19.00;99.90
43151;DHT22;28755;51.478;5.702;2023-07-08T03:08:28;19.00;99.90
43151;DHT22;28755;51.478;5.702;2023-07-08T03:10:59;19.00;99.90
43151;DHT22;28755;51.478;5.702;2023-07-08T03:13:26;18.90;99.90
43151;DHT22;28755;51.478;5.702;2023-07-08T03:15:52;19.00;99.90
43151;DHT22;28755;51.478;5.702;2023-07-08T03:18:18;18.90;99.90
43151;DHT22;28755;51.478;5.702;2023-07-08T03:20:43;18.90;99.90
43151;DHT22;28755;51.478;5.702;2023-07-08T03:23:11;18.80;99.90
43151;DHT22;28755;51.478;5.702;2023-07-08T03:25:36;18.80;99.90
43151;DHT22;28755;51.478;5.702;2023-07-08T03:28:03;18.70;99.90
43151;DHT22;28755;51.478;5.702;2023-07-08T03:30:32;18.70;99.90
43151;DHT22;28755;51.478;5.702;2023-07-08T03:32:57;18.60;99.90
43151;DHT22;28755;51.478;5.702;2023-07-08T03:35:23;18.60;99.90
43151;DHT22;28755;51.478;5.702;2023-07-08T03:37:48;18.60;99.90
43151;DHT22;28755;51.478;5.702;2023-07-08T03:40:14;18.70;99.90
43151;DHT22;28755;51.478;5.702;2023-07-08T03:42:39;18.60;99.90
43151;DHT22;28755;51.478;5.702;2023-07-08T03:45:05;18.60;99.90
43151;DHT22;28755;51.478;5.702;2023-07-08T03:47:31;18.60;99.90
43151;DHT22;28755;51.478;5.702;2023-07-08T03:49:57;18.60;99.90
43151;DHT22;28755;51.478;5.702;2023-07-08T03:52:22;18.50;99.90
43151;DHT22;28755;51.478;5.702;2023-07-08T03:54:48;18.60;99.90
43151;DHT22;28755;51.478;5.702;2023-07-08T03:57:14;18.60;99.90
43151;DHT22;28755;51.478;5.702;2023-07-08T03:59:39;18.60;99.90
43151;DHT22;28755;51.478;5.702;2023-07-08T04:02:05;18.50;99.90
43151;DHT22;28755;51.478;5.702;2023-07-08T04:04:30;18.50;99.90
43151;DHT22;28755;51.478;5.702;2023-07-08T04:06:56;18.50;99.90
43151;DHT22;28755;51.478;5.702;2023-07-08T04:09:21;18.50;99.90
43151;DHT22;28755;51.478;5.702;2023-07-08T04:11:47;18.50;99.90
43151;DHT22;28755;51.478;5.702;2023-07-08T04:14:13;18.50;99.90
43151;DHT22;28755;51.478;5.702;2023-07-08T04:16:54;18.50;99.90
43151;DHT22;28755;51.478;5.702;2023-07-08T04:19:22;18.60;99.90
43151;DHT22;28755;51.478;5.702;2023-07-08T04:21:48;18.60;99.90
43151;DHT22;28755;51.478;5.702;2023-07-08T04:24:15;18.70;99.90
43151;DHT22;28755;51.478;5.702;2023-07-08T04:26:42;18.70;99.90
43151;DHT22;28755;51.478;5.702;2023-07-08T04:29:12;18.80;99.90
43151;DHT22;28755;51.478;5.702;2023-07-08T04:31:38;18.90;99.90
43151;DHT22;28755;51.478;5.702;2023-07-08T04:34:03;19.00;99.90
43151;DHT22;28755;51.478;5.702;2023-07-08T04:36:29;19.00;99.90
43151;DHT22;28755;51.478;5.702;2023-07-08T04:38:54;19.00;99.90
43151;DHT22;28755;51.478;5.702;2023-07-08T04:41:23;18.90;99.90
43151;DHT22;28755;51.478;5.702;2023-07-08T04:43:51;18.80;99.90
43151;DHT22;28755;51.478;5.702;2023-07-08T04:46:32;18.80;99.90
43151;DHT22;28755;51.478;5.702;2023-07-08T04:49:01;18.70;99.90
43151;DHT22;28755;51.478;5.702;2023-07-08T04:51:27;18.60;99.90
43151;DHT22;28755;51.478;5.702;2023-07-08T04:53:53;18.70;99.90
43151;DHT22;28755;51.478;5.702;2023-07-08T04:56:18;18.70;99.90
43151;DHT22;28755;51.478;5.702;2023-07-08T04:58:44;18.80;99.90
43151;DHT22;28755;51.478;5.702;2023-07-08T05:01:10;18.90;99.90
43151;DHT22;28755;51.478;5.702;2023-07-08T05:03:35;19.00;99.90
43151;DHT22;28755;51.478;5.702;2023-07-08T05:06:01;19.00;99.90
43151;DHT22;28755;51.478;5.702;2023-07-08T05:08:26;19.00;99.90
43151;DHT22;28755;51.478;5.702;2023-07-08T05:10:52;19.10;99.90
43151;DHT22;28755;51.478;5.702;2023-07-08T05:13:17;19.30;99.90
43151;DHT22;28755;51.478;5.702;2023-07-08T05:15:43;19.40;99.90
43151;DHT22;28755;51.478;5.702;2023-07-08T05:18:08;19.50;99.90
43151;DHT22;28755;51.478;5.702;2023-07-08T05:20:34;19.80;99.90
43151;DHT22;28755;51.478;5.702;2023-07-08T05:23:02;20.00;99.90
43151;DHT22;28755;51.478;5.702;2023-07-08T05:25:30;20.00;99.90
43151;DHT22;28755;51.478;5.702;2023-07-08T05:27:56;20.00;99.90
43151;DHT22;28755;51.478;5.702;2023-07-08T05:30:22;19.90;99.90
43151;DHT22;28755;51.478;5.702;2023-07-08T05:32:47;19.90;99.90
43151;DHT22;28755;51.478;5.702;2023-07-08T05:35:13;19.90;99.90
43151;DHT22;28755;51.478;5.702;2023-07-08T05:37:39;19.90;99.90
43151;DHT22;28755;51.478;5.702;2023-07-08T05:40:06;19.80;99.90
43151;DHT22;28755;51.478;5.702;2023-07-08T05:42:32;19.80;99.90
43151;DHT22;28755;51.478;5.702;2023-07-08T05:44:58;19.90;99.90
43151;DHT22;28755;51.478;5.702;2023-07-08T05:47:23;19.70;99.90
43151;DHT22;28755;51.478;5.702;2023-07-08T05:49:49;19.80;99.90
43151;DHT22;28755;51.478;5.702;2023-07-08T05:52:15;20.00;99.90
43151;DHT22;28755;51.478;5.702;2023-07-08T05:54:41;20.20;99.90
43151;DHT22;28755;51.478;5.702;2023-07-08T05:57:08;20.40;99.90
43151;DHT22;28755;51.478;5.702;2023-07-08T05:59:35;20.50;99.90
43151;DHT22;28755;51.478;5.702;2023-07-08T06:02:01;20.50;99.90
43151;DHT22;28755;51.478;5.702;2023-07-08T06:04:27;20.50;99.90
43151;DHT22;28755;51.478;5.702;2023-07-08T06:06:53;20.50;99.90
43151;DHT22;28755;51.478;5.702;2023-07-08T06:09:19;20.80;99.90
43151;DHT22;28755;51.478;5.702;2023-07-08T06:11:44;20.90;99.90
43151;DHT22;28755;51.478;5.702;2023-07-08T06:14:10;21.10;99.90
43151;DHT22;28755;51.478;5.702;2023-07-08T06:16:35;21.40;99.90
43151;DHT22;28755;51.478;5.702;2023-07-08T06:19:01;21.50;99.90
43151;DHT22;28755;51.478;5.702;2023-07-08T06:21:27;21.90;99.90
43151;DHT22;28755;51.478;5.702;2023-07-08T06:23:52;22.20;99.90
43151;DHT22;28755;51.478;5.702;2023-07-08T06:26:18;22.30;99.90
43151;DHT22;28755;51.478;5.702;2023-07-08T06:28:43;22.40;99.90
43151;DHT22;28755;51.478;5.702;2023-07-08T06:31:09;22.60;99.90
43151;DHT22;28755;51.478;5.702;2023-07-08T06:33:35;22.70;99.90
43151;DHT22;28755;51.478;5.702;2023-07-08T06:36:01;22.80;99.90
43151;DHT22;28755;51.478;5.702;2023-07-08T06:38:27;22.90;99.90
43151;DHT22;28755;51.478;5.702;2023-07-08T06:40:52;23.20;99.90
43151;DHT22;28755;51.478;5.702;2023-07-08T06:43:18;23.50;99.90
43151;DHT22;28755;51.478;5.702;2023-07-08T06:45:44;23.40;99.90
43151;DHT22;28755;51.478;5.702;2023-07-08T06:48:09;23.30;99.90
43151;DHT22;28755;51.478;5.702;2023-07-08T06:50:35;23.20;99.90
43151;DHT22;28755;51.478;5.702;2023-07-08T06:53:01;23.30;99.90
43151;DHT22;28755;51.478;5.702;2023-07-08T06:55:26;23.70;99.90
43151;DHT22;28755;51.478;5.702;2023-07-08T06:57:52;23.90;99.90
43151;DHT22;28755;51.478;5.702;2023-07-08T07:00:18;24.10;99.90
43151;DHT22;28755;51.478;5.702;2023-07-08T07:02:44;24.30;99.90
43151;DHT22;28755;51.478;5.702;2023-07-08T07:05:09;24.40;99.90
43151;DHT22;28755;51.478;5.702;2023-07-08T07:07:35;24.70;99.90
43151;DHT22;28755;51.478;5.702;2023-07-08T07:10:01;25.00;99.90
43151;DHT22;28755;51.478;5.702;2023-07-08T07:12:28;25.20;99.90
43151;DHT22;28755;51.478;5.702;2023-07-08T07:14:53;25.30;99.90
43151;DHT22;28755;51.478;5.702;2023-07-08T07:17:21;25.50;99.90
43151;DHT22;28755;51.478;5.702;2023-07-08T07:19:47;25.60;99.90
43151;DHT22;28755;51.478;5.702;2023-07-08T07:22:13;25.70;99.90
43151;DHT22;28755;51.478;5.702;2023-07-08T07:24:38;25.80;99.90
43151;DHT22;28755;51.478;5.702;2023-07-08T07:27:04;26.00;99.90
43151;DHT22;28755;51.478;5.702;2023-07-08T07:29:47;26.30;99.90
43151;DHT22;28755;51.478;5.702;2023-07-08T07:32:14;26.50;99.90
43151;DHT22;28755;51.478;5.702;2023-07-08T07:34:40;26.80;99.90
43151;DHT22;28755;51.478;5.702;2023-07-08T07:37:13;26.90;99.90
43151;DHT22;28755;51.478;5.702;2023-07-08T07:39:40;27.10;99.90
43151;DHT22;28755;51.478;5.702;2023-07-08T07:42:06;27.30;99.90
43151;DHT22;28755;51.478;5.702;2023-07-08T07:44:32;27.40;99.90
43151;DHT22;28755;51.478;5.702;2023-07-08T07:46:57;27.40;99.90
43151;DHT22;28755;51.478;5.702;2023-07-08T07:49:23;27.60;99.90
43151;DHT22;28755;51.478;5.702;2023-07-08T07:51:48;27.70;99.90
43151;DHT22;28755;51.478;5.702;2023-07-08T07:54:15;27.80;99.90
43151;DHT22;28755;51.478;5.702;2023-07-08T07:56:40;27.80;99.90
43151;DHT22;28755;51.478;5.702;2023-07-08T07:59:06;27.90;99.90
43151;DHT22;28755;51.478;5.702;2023-07-08T08:01:32;28.10;99.90
43151;DHT22;28755;51.478;5.702;2023-07-08T08:03:57;28.40;99.90
43151;DHT22;28755;51.478;5.702;2023-07-08T08:06:23;28.40;99.90
43151;DHT22;28755;51.478;5.702;2023-07-08T08:08:49;28.70;99.90
43151;DHT22;28755;51.478;5.702;2023-07-08T08:11:15;28.80;99.90
43151;DHT22;28755;51.478;5.702;2023-07-08T08:13:41;29.10;99.90
43151;DHT22;28755;51.478;5.702;2023-07-08T08:16:06;29.30;99.90
43151;DHT22;28755;51.478;5.702;2023-07-08T08:18:32;29.50;99.90
43151;DHT22;28755;51.478;5.702;2023-07-08T08:20:57;29.50;99.90
43151;DHT22;28755;51.478;5.702;2023-07-08T08:23:23;29.80;99.90
43151;DHT22;28755;51.478;5.702;2023-07-08T08:25:50;30.20;99.90
43151;DHT22;28755;51.478;5.702;2023-07-08T08:28:16;30.30;99.90
43151;DHT22;28755;51.478;5.702;2023-07-08T08:30:42;30.50;99.90
43151;DHT22;28755;51.478;5.702;2023-07-08T08:33:07;30.70;99.90
43151;DHT22;28755;51.478;5.702;2023-07-08T08:35:33;30.90;99.90
43151;DHT22;28755;51.478;5.702;2023-07-08T08:37:59;31.20;99.90
43151;DHT22;28755;51.478;5.702;2023-07-08T08:40:24;31.50;99.90
43151;DHT22;28755;51.478;5.702;2023-07-08T08:43:12;31.60;99.90
43151;DHT22;28755;51.478;5.702;2023-07-08T08:45:48;31.60;99.90
43151;DHT22;28755;51.478;5.702;2023-07-08T08:48:18;31.90;99.90
43151;DHT22;28755;51.478;5.702;2023-07-08T08:51:02;32.40;99.90
43151;DHT22;28755;51.478;5.702;2023-07-08T08:53:29;32.90;99.60
43151;DHT22;28755;51.478;5.702;2023-07-08T08:56:14;33.10;99.40
43151;DHT22;28755;51.478;5.702;2023-07-08T09:01:20;33.40;99.00
43151;DHT22;28755;51.478;5.702;2023-07-08T09:03:50;33.50;98.30
43151;DHT22;28755;51.478;5.702;2023-07-08T09:06:28;33.80;97.90
43151;DHT22;28755;51.478;5.702;2023-07-08T09:08:57;33.90;97.60
43151;DHT22;28755;51.478;5.702;2023-07-08T09:14:15;34.50;96.80
43151;DHT22;28755;51.478;5.702;2023-07-08T09:16:47;34.50;96.60
43151;DHT22;28755;51.478;5.702;2023-07-08T09:19:24;34.40;95.80
43151;DHT22;28755;51.478;5.702;2023-07-08T09:25:28;34.90;95.60
43151;DHT22;28755;51.478;5.702;2023-07-08T09:27:55;35.30;94.80
43151;DHT22;28755;51.478;5.702;2023-07-08T09:30:22;35.40;94.50
43151;DHT22;28755;51.478;5.702;2023-07-08T09:32:49;35.70;94.50
43151;DHT22;28755;51.478;5.702;2023-07-08T09:35:25;36.20;94.40
43151;DHT22;28755;51.478;5.702;2023-07-08T09:37:51;36.40;94.00
43151;DHT22;28755;51.478;5.702;2023-07-08T09:40:30;36.50;94.10
43151;DHT22;28755;51.478;5.702;2023-07-08T09:43:27;36.70;93.40
43151;DHT22;28755;51.478;5.702;2023-07-08T09:45:57;36.60;93.40
43151;DHT22;28755;51.478;5.702;2023-07-08T09:48:29;37.20;94.00
43151;DHT22;28755;51.478;5.702;2023-07-08T09:50:56;37.10;93.50
43151;DHT22;28755;51.478;5.702;2023-07-08T09:53:22;37.50;93.60
43151;DHT22;28755;51.478;5.702;2023-07-08T09:55:50;37.90;93.60
43151;DHT22;28755;51.478;5.702;2023-07-08T09:58:29;37.60;93.00
43151;DHT22;28755;51.478;5.702;2023-07-08T10:01:00;37.50;93.50
43151;DHT22;28755;51.478;5.702;2023-07-08T10:03:28;38.30;93.50
43151;DHT22;28755;51.478;5.702;2023-07-08T10:05:57;38.80;93.20
43151;DHT22;28755;51.478;5.702;2023-07-08T10:08:34;39.20;91.80
43151;DHT22;28755;51.478;5.702;2023-07-08T10:11:33;39.20;91.50
43151;DHT22;28755;51.478;5.702;2023-07-08T10:14:09;39.70;90.90
43151;DHT22;28755;51.478;5.702;2023-07-08T10:16:36;39.50;90.80
43151;DHT22;28755;51.478;5.702;2023-07-08T10:19:18;40.10;90.80
43151;DHT22;28755;51.478;5.702;2023-07-08T10:27:55;41.60;87.70
43151;DHT22;28755;51.478;5.702;2023-07-08T10:30:23;41.70;83.50
43151;DHT22;28755;51.478;5.702;2023-07-08T10:33:17;41.50;82.30
43151;DHT22;28755;51.478;5.702;2023-07-08T10:38:52;41.40;83.80
43151;DHT22;28755;51.478;5.702;2023-07-08T10:44:28;42.00;83.00
43151;DHT22;28755;51.478;5.702;2023-07-08T10:47:11;41.80;81.50
43151;DHT22;28755;51.478;5.702;2023-07-08T10:55:20;42.70;78.20
43151;DHT22;28755;51.478;5.702;2023-07-08T11:06:03;43.90;74.00
43151;DHT22;28755;51.478;5.702;2023-07-08T11:08:55;44.40;73.60
43151;DHT22;28755;51.478;5.702;2023-07-08T11:11:32;43.50;73.60
43151;DHT22;28755;51.478;5.702;2023-07-08T11:14:14;43.60;73.60
43151;DHT22;28755;51.478;5.702;2023-07-08T11:16:47;44.30;73.70
43151;DHT22;28755;51.478;5.702;2023-07-08T11:19:42;44.20;73.10
43151;DHT22;28755;51.478;5.702;2023-07-08T11:22:11;43.90;73.40
43151;DHT22;28755;51.478;5.702;2023-07-08T11:24:48;42.60;74.00
43151;DHT22;28755;51.478;5.702;2023-07-08T11:29:59;43.40;74.10
43151;DHT22;28755;51.478;5.702;2023-07-08T11:32:29;43.30;73.40
43151;DHT22;28755;51.478;5.702;2023-07-08T11:34:58;42.40;74.00
43151;DHT22;28755;51.478;5.702;2023-07-08T11:37:25;42.80;72.60
43151;DHT22;28755;51.478;5.702;2023-07-08T11:40:20;43.60;73.10
43151;DHT22;28755;51.478;5.702;2023-07-08T11:42:51;43.60;72.80
43151;DHT22;28755;51.478;5.702;2023-07-08T11:47:47;43.20;71.70
43151;DHT22;28755;51.478;5.702;2023-07-08T11:50:24;43.40;72.00
43151;DHT22;28755;51.478;5.702;2023-07-08T11:53:02;43.60;71.10
43151;DHT22;28755;51.478;5.702;2023-07-08T11:55:56;44.00;70.30
43151;DHT22;28755;51.478;5.702;2023-07-08T11:58:25;43.70;70.50
43151;DHT22;28755;51.478;5.702;2023-07-08T12:05:57;42.70;70.50
43151;DHT22;28755;51.478;5.702;2023-07-08T12:08:33;42.40;70.30
43151;DHT22;28755;51.478;5.702;2023-07-08T12:10:59;41.50;70.50
43151;DHT22;28755;51.478;5.702;2023-07-08T12:13:25;40.40;70.00
43151;DHT22;28755;51.478;5.702;2023-07-08T12:15:52;39.50;71.10
43151;DHT22;28755;51.478;5.702;2023-07-08T12:18:34;38.60;70.70
43151;DHT22;28755;51.478;5.702;2023-07-08T12:21:02;37.70;70.80
43151;DHT22;28755;51.478;5.702;2023-07-08T12:23:29;37.30;72.00
43151;DHT22;28755;51.478;5.702;2023-07-08T12:25:55;36.70;72.10
43151;DHT22;28755;51.478;5.702;2023-07-08T12:28:23;36.30;72.70
43151;DHT22;28755;51.478;5.702;2023-07-08T12:30:49;36.10;73.30
43151;DHT22;28755;51.478;5.702;2023-07-08T12:33:26;36.30;73.10
43151;DHT22;28755;51.478;5.702;2023-07-08T12:35:53;36.20;73.40
43151;DHT22;28755;51.478;5.702;2023-07-08T12:38:32;35.90;73.10
43151;DHT22;28755;51.478;5.702;2023-07-08T12:41:01;35.60;74.60
43151;DHT22;28755;51.478;5.702;2023-07-08T12:43:28;35.70;71.70
43151;DHT22;28755;51.478;5.702;2023-07-08T12:45:54;35.60;71.10
43151;DHT22;28755;51.478;5.702;2023-07-08T12:48:20;35.50;71.90
43151;DHT22;28755;51.478;5.702;2023-07-08T12:50:45;35.80;72.20
43151;DHT22;28755;51.478;5.702;2023-07-08T12:53:11;36.20;71.70
43151;DHT22;28755;51.478;5.702;2023-07-08T12:55:42;36.40;71.20
43151;DHT22;28755;51.478;5.702;2023-07-08T12:58:24;36.30;71.80
43151;DHT22;28755;51.478;5.702;2023-07-08T13:00:55;36.20;71.60
43151;DHT22;28755;51.478;5.702;2023-07-08T13:03:23;36.10;72.40
43151;DHT22;28755;51.478;5.702;2023-07-08T13:05:51;35.70;72.60
43151;DHT22;28755;51.478;5.702;2023-07-08T13:08:23;35.40;72.80
43151;DHT22;28755;51.478;5.702;2023-07-08T13:10:54;35.40;73.70
43151;DHT22;28755;51.478;5.702;2023-07-08T13:13:24;35.50;72.60
43151;DHT22;28755;51.478;5.702;2023-07-08T13:15:51;35.40;73.30
43151;DHT22;28755;51.478;5.702;2023-07-08T13:18:34;35.30;73.10
43151;DHT22;28755;51.478;5.702;2023-07-08T13:21:01;35.50;73.10
43151;DHT22;28755;51.478;5.702;2023-07-08T13:23:28;35.50;73.30
43151;DHT22;28755;51.478;5.702;2023-07-08T13:25:55;35.60;72.70
43151;DHT22;28755;51.478;5.702;2023-07-08T13:28:26;35.50;73.30
43151;DHT22;28755;51.478;5.702;2023-07-08T13:30:57;35.20;72.90
43151;DHT22;28755;51.478;5.702;2023-07-08T13:33:32;35.00;73.40
43151;DHT22;28755;51.478;5.702;2023-07-08T13:35:58;35.10;73.70
43151;DHT22;28755;51.478;5.702;2023-07-08T13:38:32;35.40;73.30
43151;DHT22;28755;51.478;5.702;2023-07-08T13:41:01;35.60;72.60
43151;DHT22;28755;51.478;5.702;2023-07-08T13:43:38;35.40;72.80
43151;DHT22;28755;51.478;5.702;2023-07-08T13:46:24;35.50;72.70
43151;DHT22;28755;51.478;5.702;2023-07-08T13:48:51;35.50;73.30
43151;DHT22;28755;51.478;5.702;2023-07-08T13:51:19;35.50;73.10
43151;DHT22;28755;51.478;5.702;2023-07-08T13:53:50;35.20;73.40
43151;DHT22;28755;51.478;5.702;2023-07-08T13:58:59;35.20;73.40
43151;DHT22;28755;51.478;5.702;2023-07-08T14:01:26;35.30;72.60
43151;DHT22;28755;51.478;5.702;2023-07-08T14:03:54;35.60;73.10
43151;DHT22;28755;51.478;5.702;2023-07-08T14:06:24;35.70;72.70
43151;DHT22;28755;51.478;5.702;2023-07-08T14:08:54;35.80;72.50
43151;DHT22;28755;51.478;5.702;2023-07-08T14:11:20;35.60;72.20
43151;DHT22;28755;51.478;5.702;2023-07-08T14:13:46;35.70;72.80
43151;DHT22;28755;51.478;5.702;2023-07-08T14:16:23;35.60;73.00
43151;DHT22;28755;51.478;5.702;2023-07-08T14:18:50;35.60;73.40
43151;DHT22;28755;51.478;5.702;2023-07-08T14:21:16;35.50;72.90
43151;DHT22;28755;51.478;5.702;2023-07-08T14:23:43;35.40;73.10
43151;DHT22;28755;51.478;5.702;2023-07-08T14:26:10;35.10;73.10
43151;DHT22;28755;51.478;5.702;2023-07-08T14:28:36;35.20;72.60
43151;DHT22;28755;51.478;5.702;2023-07-08T14:31:02;35.20;73.30
43151;DHT22;28755;51.478;5.702;2023-07-08T14:33:28;35.30;73.10
43151;DHT22;28755;51.478;5.702;2023-07-08T14:35:53;35.30;73.20
43151;DHT22;28755;51.478;5.702;2023-07-08T14:38:19;35.30;73.00
43151;DHT22;28755;51.478;5.702;2023-07-08T14:40:44;35.40;73.10
43151;DHT22;28755;51.478;5.702;2023-07-08T14:43:13;35.40;72.90
43151;DHT22;28755;51.478;5.702;2023-07-08T14:45:43;35.40;73.20
43151;DHT22;28755;51.478;5.702;2023-07-08T14:48:10;35.50;73.00
43151;DHT22;28755;51.478;5.702;2023-07-08T14:50:36;35.60;73.30
43151;DHT22;28755;51.478;5.702;2023-07-08T14:53:02;35.40;73.20
43151;DHT22;28755;51.478;5.702;2023-07-08T14:55:28;35.30;73.60
43151;DHT22;28755;51.478;5.702;2023-07-08T14:57:54;35.30;73.60
43151;DHT22;28755;51.478;5.702;2023-07-08T15:00:22;34.90;74.00
43151;DHT22;28755;51.478;5.702;2023-07-08T15:02:49;34.80;74.60
43151;DHT22;28755;51.478;5.702;2023-07-08T15:05:21;34.70;75.30
43151;DHT22;28755;51.478;5.702;2023-07-08T15:07:52;34.80;75.30
43151;DHT22;28755;51.478;5.702;2023-07-08T15:10:19;34.90;75.00
43151;DHT22;28755;51.478;5.702;2023-07-08T15:12:49;34.70;74.80
43151;DHT22;28755;51.478;5.702;2023-07-08T15:15:27;34.80;75.00
43151;DHT22;28755;51.478;5.702;2023-07-08T15:17:53;34.70;75.80
43151;DHT22;28755;51.478;5.702;2023-07-08T15:20:19;34.70;75.90
43151;DHT22;28755;51.478;5.702;2023-07-08T15:22:45;34.70;75.70
43151;DHT22;28755;51.478;5.702;2023-07-08T15:25:13;34.50;75.70
43151;DHT22;28755;51.478;5.702;2023-07-08T15:27:41;34.50;77.00
43151;DHT22;28755;51.478;5.702;2023-07-08T15:30:17;34.30;76.30
43151;DHT22;28755;51.478;5.702;2023-07-08T15:32:44;34.30;76.70
43151;DHT22;28755;51.478;5.702;2023-07-08T15:35:15;34.40;77.00
43151;DHT22;28755;51.478;5.702;2023-07-08T15:37:42;34.20;77.00
43151;DHT22;28755;51.478;5.702;2023-07-08T15:40:08;34.20;77.40
43151;DHT22;28755;51.478;5.702;2023-07-08T15:42:35;34.20;77.00
43151;DHT22;28755;51.478;5.702;2023-07-08T15:45:08;34.30;76.60
43151;DHT22;28755;51.478;5.702;2023-07-08T15:47:36;34.20;77.40
43151;DHT22;28755;51.478;5.702;2023-07-08T15:50:12;34.40;77.70
43151;DHT22;28755;51.478;5.702;2023-07-08T15:52:38;34.40;77.50
43151;DHT22;28755;51.478;5.702;2023-07-08T15:55:03;34.40;77.30
43151;DHT22;28755;51.478;5.702;2023-07-08T15:57:29;34.30;76.90
43151;DHT22;28755;51.478;5.702;2023-07-08T15:59:55;34.30;77.50
43151;DHT22;28755;51.478;5.702;2023-07-08T16:02:26;34.30;78.00
43151;DHT22;28755;51.478;5.702;2023-07-08T16:04:53;34.30;78.10
43151;DHT22;28755;51.478;5.702;2023-07-08T16:07:18;34.40;77.90
43151;DHT22;28755;51.478;5.702;2023-07-08T16:09:44;34.40;78.00
43151;DHT22;28755;51.478;5.702;2023-07-08T16:12:19;34.40;77.70
43151;DHT22;28755;51.478;5.702;2023-07-08T16:14:46;34.40;77.60
43151;DHT22;28755;51.478;5.702;2023-07-08T16:17:12;34.30;77.70
43151;DHT22;28755;51.478;5.702;2023-07-08T16:19:38;34.40;77.40
43151;DHT22;28755;51.478;5.702;2023-07-08T16:22:03;34.50;78.20
43151;DHT22;28755;51.478;5.702;2023-07-08T16:24:31;34.40;77.90
43151;DHT22;28755;51.478;5.702;2023-07-08T16:26:56;34.30;78.60